Time;durP1;ratioP1;P1;durP2;ratioP2;P2;SDS_P1;SDS_P2;PMS_P1;PMS_P2;Temp;Humidity;BMP_temperature;BMP_pressure;BME280_temperature;BME280_humidity;BME280_pressure;Samples;Min_cycle;Max_cycle;Signal;HPM_P1;HPM_P2
2023/12/10 00:00:57;;;;;;;;;;;25.30;99.90;;;;;;4966742;28;20335;-71
2023/12/10 00:03:24;;;;;;;;;;;25.30;99.90;;;;;;4961358;28;20115;-74
2023/12/10 00:05:51;;;;;;;;;;;25.30;99.90;;;;;;4957155;28;20326;-74
2023/12/10 00:08:18;;;;;;;;;;;25.10;99.90;;;;;;4956595;28;19918;-76
2023/12/10 00:10:44;;;;;;;;;;;25.10;99.90;;;;;;4970528;28;20193;-71
2023/12/10 00:13:11;;;;;;;;;;;25.10;99.90;;;;;;4972884;28;19914;-71
2023/12/10 00:15:37;;;;;;;;;;;25.10;99.90;;;;;;4956888;28;19932;-73
2023/12/10 00:18:05;;;;;;;;;;;25.30;99.90;;;;;;4953611;28;20392;-74
2023/12/10 00:20:31;;;;;;;;;;;25.30;99.90;;;;;;4967963;28;20272;-71
2023/12/10 00:22:58;;;;;;;;;;;25.30;99.90;;;;;;4956152;28;19930;-73
2023/12/10 00:25:26;;;;;;;;;;;25.40;99.90;;;;;;4971110;28;19920;-71
2023/12/10 00:27:52;;;;;;;;;;;25.50;99.90;;;;;;4972735;28;19914;-73
2023/12/10 00:30:20;;;;;;;;;;;25.50;99.90;;;;;;4960460;28;19911;-73
2023/12/10 00:32:46;;;;;;;;;;;25.50;99.90;;;;;;4961467;28;19918;-72
2023/12/10 00:35:14;;;;;;;;;;;25.50;99.90;;;;;;4973081;28;19917;-75
2023/12/10 00:37:40;;;;;;;;;;;25.50;99.90;;;;;;4971137;28;19996;-74
2023/12/10 00:40:08;;;;;;;;;;;25.50;99.90;;;;;;4971179;28;20013;-74
2023/12/10 00:42:35;;;;;;;;;;;25.50;99.90;;;;;;4971912;28;19923;-74
2023/12/10 00:45:02;;;;;;;;;;;25.50;99.90;;;;;;4972546;28;19945;-76
2023/12/10 00:47:29;;;;;;;;;;;25.60;99.90;;;;;;4972594;28;20009;-73
2023/12/10 00:49:55;;;;;;;;;;;25.80;99.90;;;;;;4953645;28;20390;-73
2023/12/10 00:52:22;;;;;;;;;;;25.90;99.90;;;;;;4970695;28;19921;-73
2023/12/10 00:54:48;;;;;;;;;;;26.20;99.90;;;;;;4970202;28;20161;-73
2023/12/10 00:57:15;;;;;;;;;;;26.30;99.90;;;;;;4971811;28;19910;-73
2023/12/10 00:59:42;;;;;;;;;;;26.30;99.90;;;;;;4971984;28;19910;-73
2023/12/10 01:02:08;;;;;;;;;;;26.30;99.90;;;;;;4969658;28;20266;-73
2023/12/10 01:04:35;;;;;;;;;;;26.30;99.90;;;;;;4971185;28;19933;-74
2023/12/10 01:07:07;;;;;;;;;;;26.30;99.90;;;;;;4971116;28;20268;-73
2023/12/10 01:09:36;;;;;;;;;;;26.30;99.90;;;;;;4971404;28;19910;-75
2023/12/10 01:12:03;;;;;;;;;;;26.40;99.90;;;;;;4971090;28;20367;-73
2023/12/10 01:14:32;;;;;;;;;;;26.40;99.90;;;;;;4971351;28;19910;-73
2023/12/10 01:16:59;;;;;;;;;;;26.30;99.90;;;;;;4971580;28;19910;-72
2023/12/10 01:19:26;;;;;;;;;;;26.40;99.90;;;;;;4971699;28;20968;-73
2023/12/10 01:21:53;;;;;;;;;;;26.40;99.90;;;;;;4971280;28;19957;-73
2023/12/10 01:24:20;;;;;;;;;;;26.40;99.90;;;;;;4958784;28;19922;-73
2023/12/10 01:26:47;;;;;;;;;;;26.50;99.90;;;;;;4970839;28;19997;-74
2023/12/10 01:29:15;;;;;;;;;;;26.60;99.90;;;;;;4986789;28;20331;-73
2023/12/10 01:31:42;;;;;;;;;;;26.50;99.90;;;;;;5004402;28;19917;-72
2023/12/10 01:34:08;;;;;;;;;;;26.50;99.90;;;;;;4971224;28;19910;-74
2023/12/10 01:36:35;;;;;;;;;;;26.50;99.90;;;;;;4955587;28;19918;-73
2023/12/10 01:39:03;;;;;;;;;;;26.50;99.90;;;;;;4955319;28;19914;-73
2023/12/10 01:41:30;;;;;;;;;;;26.50;99.90;;;;;;4955583;28;19929;-73
2023/12/10 01:44:00;;;;;;;;;;;26.50;99.90;;;;;;4964211;28;19919;-74
2023/12/10 01:46:27;;;;;;;;;;;26.60;99.90;;;;;;4951986;28;19953;-72
2023/12/10 01:48:53;;;;;;;;;;;26.60;99.90;;;;;;4958132;28;20006;-73
2023/12/10 01:51:20;;;;;;;;;;;26.90;99.90;;;;;;4965906;28;19921;-72
2023/12/10 01:53:47;;;;;;;;;;;27.00;99.90;;;;;;4964362;28;19914;-73
2023/12/10 01:56:14;;;;;;;;;;;27.00;99.90;;;;;;4970242;28;19914;-73
2023/12/10 01:58:40;;;;;;;;;;;26.90;99.90;;;;;;4971237;28;20275;-73
2023/12/10 02:01:07;;;;;;;;;;;26.90;99.90;;;;;;4971021;28;19914;-74
2023/12/10 02:03:34;;;;;;;;;;;26.90;99.90;;;;;;4964575;28;19915;-73
2023/12/10 02:06:02;;;;;;;;;;;26.90;99.90;;;;;;4968130;28;19942;-73
2023/12/10 02:08:29;;;;;;;;;;;27.20;99.90;;;;;;4965736;28;19989;-72
2023/12/10 02:10:55;;;;;;;;;;;27.30;99.90;;;;;;4964204;28;19940;-72
2023/12/10 02:13:23;;;;;;;;;;;27.40;99.90;;;;;;4969552;28;19917;-72
2023/12/10 02:15:50;;;;;;;;;;;27.30;99.90;;;;;;4960017;28;19915;-73
2023/12/10 02:18:19;;;;;;;;;;;27.30;99.90;;;;;;4950489;28;19917;-75
2023/12/10 02:20:47;;;;;;;;;;;27.30;99.90;;;;;;4950522;28;19929;-74
2023/12/10 02:23:36;;;;;;;;;;;27.20;99.90;;;;;;4951918;28;19929;-74
2023/12/10 02:26:03;;;;;;;;;;;27.30;99.90;;;;;;4961354;28;19918;-73
2023/12/10 02:28:30;;;;;;;;;;;27.30;99.90;;;;;;4968389;28;20420;-75
2023/12/10 02:30:56;;;;;;;;;;;27.50;99.90;;;;;;4970807;28;19910;-72
2023/12/10 02:33:23;;;;;;;;;;;27.70;99.90;;;;;;4970813;28;19921;-74
2023/12/10 02:35:50;;;;;;;;;;;27.90;99.90;;;;;;4970778;28;20416;-74
2023/12/10 02:38:20;;;;;;;;;;;28.20;99.90;;;;;;4951907;28;19917;-76
2023/12/10 02:40:48;;;;;;;;;;;28.50;99.90;;;;;;4951285;28;19976;-74
2023/12/10 02:43:16;;;;;;;;;;;29.10;99.90;;;;;;4952889;28;19930;-74
2023/12/10 02:45:43;;;;;;;;;;;30.00;99.90;;;;;;4956585;28;19992;-74
2023/12/10 02:48:10;;;;;;;;;;;30.50;99.90;;;;;;4951836;28;19946;-75
2023/12/10 02:50:37;;;;;;;;;;;30.80;99.90;;;;;;4962618;28;19922;-74
2023/12/10 02:53:03;;;;;;;;;;;31.00;99.90;;;;;;4970348;28;19914;-75
2023/12/10 02:55:30;;;;;;;;;;;31.20;99.90;;;;;;4969794;28;20303;-73
2023/12/10 02:57:56;;;;;;;;;;;31.40;99.90;;;;;;4967319;28;20434;-73
2023/12/10 03:00:23;;;;;;;;;;;31.90;99.90;;;;;;4969266;28;19911;-76
2023/12/10 03:02:50;;;;;;;;;;;32.40;99.90;;;;;;4963729;28;19951;-75
2023/12/10 03:05:16;;;;;;;;;;;32.30;99.60;;;;;;4975071;28;19910;-75
2023/12/10 03:07:43;;;;;;;;;;;32.40;99.60;;;;;;4976354;28;20079;-75
2023/12/10 03:10:10;;;;;;;;;;;32.50;99.40;;;;;;4974554;28;20402;-74
2023/12/10 03:12:36;;;;;;;;;;;32.50;98.90;;;;;;4971500;28;19918;-75
2023/12/10 03:15:03;;;;;;;;;;;32.40;98.90;;;;;;4954858;28;20064;-76
2023/12/10 03:17:30;;;;;;;;;;;32.80;98.70;;;;;;4954567;28;20256;-74
2023/12/10 03:19:56;;;;;;;;;;;33.90;97.90;;;;;;4958324;28;19936;-75
2023/12/10 03:22:23;;;;;;;;;;;34.80;96.70;;;;;;4975926;28;19928;-75
2023/12/10 03:24:49;;;;;;;;;;;35.60;96.10;;;;;;4970861;28;19914;-74
2023/12/10 03:27:16;;;;;;;;;;;36.30;94.60;;;;;;4972757;28;19915;-75
2023/12/10 03:29:43;;;;;;;;;;;36.50;92.70;;;;;;4972433;28;19914;-76
2023/12/10 03:32:09;;;;;;;;;;;36.40;93.00;;;;;;4970547;28;20386;-75
2023/12/10 03:34:36;;;;;;;;;;;36.80;92.10;;;;;;4963697;28;19945;-74
2023/12/10 03:37:02;;;;;;;;;;;36.40;92.70;;;;;;4960889;28;19979;-74
2023/12/10 03:39:29;;;;;;;;;;;36.20;92.30;;;;;;4959487;28;20383;-74
2023/12/10 03:41:56;;;;;;;;;;;36.50;91.80;;;;;;4968603;28;20048;-74
2023/12/10 03:44:23;;;;;;;;;;;36.40;91.70;;;;;;4954133;28;19918;-73
2023/12/10 03:46:49;;;;;;;;;;;36.60;92.00;;;;;;4958707;28;20363;-76
2023/12/10 03:49:16;;;;;;;;;;;36.80;91.10;;;;;;4954415;28;20053;-75
2023/12/10 03:51:43;;;;;;;;;;;36.60;91.30;;;;;;4953905;28;19910;-75
2023/12/10 03:54:09;;;;;;;;;;;36.60;91.30;;;;;;4961452;28;19914;-75
2023/12/10 03:56:36;;;;;;;;;;;37.00;90.70;;;;;;4973625;28;19910;-77
2023/12/10 03:59:03;;;;;;;;;;;37.10;90.70;;;;;;4959883;28;19915;-77
2023/12/10 04:01:29;;;;;;;;;;;37.40;90.30;;;;;;4954037;28;19972;-74
2023/12/10 04:03:56;;;;;;;;;;;37.70;89.40;;;;;;4954035;28;19910;-74
2023/12/10 04:06:22;;;;;;;;;;;38.10;88.40;;;;;;4953590;28;19950;-73
2023/12/10 04:08:49;;;;;;;;;;;37.90;88.40;;;;;;4957988;28;19928;-72
2023/12/10 04:11:24;;;;;;;;;;;38.30;87.50;;;;;;4959009;28;19945;-73
2023/12/10 04:13:51;;;;;;;;;;;38.20;87.50;;;;;;4954833;28;19968;-73
2023/12/10 04:16:27;;;;;;;;;;;38.50;87.20;;;;;;4972105;28;20002;-74
2023/12/10 04:18:54;;;;;;;;;;;38.80;85.60;;;;;;4972650;28;19945;-74
2023/12/10 04:21:21;;;;;;;;;;;38.00;86.90;;;;;;4971570;28;20017;-73
2023/12/10 04:23:48;;;;;;;;;;;37.70;87.20;;;;;;4965119;28;19921;-74
2023/12/10 04:26:15;;;;;;;;;;;37.80;87.10;;;;;;4972474;28;19968;-71
2023/12/10 04:28:42;;;;;;;;;;;37.90;87.50;;;;;;4972550;28;19949;-72
2023/12/10 04:31:09;;;;;;;;;;;38.20;86.20;;;;;;4961424;28;19923;-71
2023/12/10 04:33:36;;;;;;;;;;;38.30;86.00;;;;;;4955256;28;19919;-71
2023/12/10 04:36:03;;;;;;;;;;;39.30;84.70;;;;;;4972686;28;19952;-71
2023/12/10 04:38:30;;;;;;;;;;;39.50;83.70;;;;;;4972376;28;19942;-71
2023/12/10 04:40:57;;;;;;;;;;;39.10;84.00;;;;;;4970559;28;19910;-73
2023/12/10 04:43:23;;;;;;;;;;;38.60;84.30;;;;;;4952840;28;20337;-73
2023/12/10 04:45:50;;;;;;;;;;;38.00;85.20;;;;;;4959103;28;19921;-73
2023/12/10 04:48:17;;;;;;;;;;;37.70;85.50;;;;;;4972350;28;20290;-73
2023/12/10 04:50:43;;;;;;;;;;;37.90;86.30;;;;;;4962140;28;19919;-73
2023/12/10 04:53:10;;;;;;;;;;;38.30;84.40;;;;;;4953044;28;19910;-73
2023/12/10 04:55:37;;;;;;;;;;;38.60;83.90;;;;;;4964322;28;19914;-74
2023/12/10 04:58:03;;;;;;;;;;;38.00;85.00;;;;;;4964808;28;19914;-74
2023/12/10 05:00:30;;;;;;;;;;;37.20;85.80;;;;;;4953190;28;20368;-75
2023/12/10 05:02:57;;;;;;;;;;;36.90;86.90;;;;;;4952782;28;19919;-76
2023/12/10 05:05:23;;;;;;;;;;;36.80;87.50;;;;;;4953921;28;19940;-75
2023/12/10 05:07:50;;;;;;;;;;;36.90;87.10;;;;;;4958414;28;19968;-76
2023/12/10 05:10:17;;;;;;;;;;;36.70;87.80;;;;;;4961184;28;20428;-75
2023/12/10 05:12:43;;;;;;;;;;;36.90;86.80;;;;;;4972241;28;19914;-75
2023/12/10 05:15:10;;;;;;;;;;;37.00;86.90;;;;;;4958413;28;20318;-75
2023/12/10 05:17:36;;;;;;;;;;;36.80;86.80;;;;;;4964958;28;19918;-75
2023/12/10 05:20:05;;;;;;;;;;;36.40;87.60;;;;;;4970234;28;19910;-75
2023/12/10 05:22:31;;;;;;;;;;;35.70;89.30;;;;;;4963032;28;19970;-75
2023/12/10 05:24:58;;;;;;;;;;;34.70;90.70;;;;;;4952492;28;19917;-76
2023/12/10 05:27:25;;;;;;;;;;;33.90;91.70;;;;;;4964750;28;19914;-75
2023/12/10 05:29:52;;;;;;;;;;;33.50;92.40;;;;;;4963476;28;19914;-76
2023/12/10 05:32:18;;;;;;;;;;;33.20;92.50;;;;;;4960955;28;20283;-75
2023/12/10 05:34:45;;;;;;;;;;;33.00;93.00;;;;;;4963061;28;19914;-77
2023/12/10 05:37:11;;;;;;;;;;;32.70;93.60;;;;;;4963289;28;19922;-77
2023/12/10 05:39:38;;;;;;;;;;;32.60;93.90;;;;;;4951894;28;19922;-76
2023/12/10 05:42:05;;;;;;;;;;;32.50;94.10;;;;;;4963007;28;19926;-76
2023/12/10 05:44:31;;;;;;;;;;;32.40;94.30;;;;;;4970302;28;19921;-76
2023/12/10 05:46:58;;;;;;;;;;;32.20;94.50;;;;;;4968915;28;19929;-76
2023/12/10 05:49:25;;;;;;;;;;;31.90;94.90;;;;;;4955003;28;19915;-75
2023/12/10 05:51:51;;;;;;;;;;;31.60;95.30;;;;;;4966783;28;19920;-74
2023/12/10 05:54:18;;;;;;;;;;;31.30;96.00;;;;;;4970950;28;19914;-75
2023/12/10 05:56:45;;;;;;;;;;;30.70;96.60;;;;;;4958692;28;19914;-74
2023/12/10 05:59:15;;;;;;;;;;;30.30;97.40;;;;;;4959687;28;19922;-73
2023/12/10 06:01:42;;;;;;;;;;;30.00;98.10;;;;;;4967175;28;20393;-75
2023/12/10 06:04:09;;;;;;;;;;;29.90;98.30;;;;;;4962107;28;19918;-75
2023/12/10 06:06:35;;;;;;;;;;;29.60;98.90;;;;;;4954103;28;19919;-74
2023/12/10 06:09:02;;;;;;;;;;;29.30;99.50;;;;;;4951787;28;19911;-74
2023/12/10 06:11:29;;;;;;;;;;;28.90;99.90;;;;;;4957766;28;19937;-78
2023/12/10 06:13:55;;;;;;;;;;;28.50;99.90;;;;;;4958750;28;19918;-77
2023/12/10 06:16:22;;;;;;;;;;;28.20;99.90;;;;;;4951961;28;19910;-75
2023/12/10 06:18:49;;;;;;;;;;;28.10;99.90;;;;;;4964853;28;20291;-79
2023/12/10 06:21:15;;;;;;;;;;;28.00;99.90;;;;;;4953513;28;19929;-78
2023/12/10 06:23:42;;;;;;;;;;;27.80;99.90;;;;;;4951860;28;19910;-76
2023/12/10 06:26:08;;;;;;;;;;;27.90;99.90;;;;;;4951878;28;19914;-80
2023/12/10 06:28:35;;;;;;;;;;;27.90;99.90;;;;;;4966027;28;19918;-77
2023/12/10 06:31:02;;;;;;;;;;;27.90;99.90;;;;;;4951835;28;19911;-76
2023/12/10 06:33:28;;;;;;;;;;;27.80;99.90;;;;;;5061006;28;20254;-76
2023/12/10 06:35:55;;;;;;;;;;;27.70;99.90;;;;;;4974036;28;19974;-76
2023/12/10 06:38:22;;;;;;;;;;;27.70;99.90;;;;;;4968507;28;19918;-76
2023/12/10 06:40:48;;;;;;;;;;;27.50;99.90;;;;;;4951718;28;20371;-77
2023/12/10 06:43:15;;;;;;;;;;;27.50;99.90;;;;;;4952456;28;20017;-76
2023/12/10 06:45:41;;;;;;;;;;;27.20;99.90;;;;;;4970576;28;19917;-78
2023/12/10 06:48:08;;;;;;;;;;;27.20;99.90;;;;;;4968804;28;20025;-76
2023/12/10 06:50:35;;;;;;;;;;;27.10;99.90;;;;;;4966940;28;19918;-77
2023/12/10 06:53:01;;;;;;;;;;;27.20;99.90;;;;;;4951496;28;19934;-78
2023/12/10 06:55:28;;;;;;;;;;;27.10;99.90;;;;;;4960382;28;20389;-78
2023/12/10 06:57:55;;;;;;;;;;;27.00;99.90;;;;;;4956615;28;19922;-76
2023/12/10 07:00:21;;;;;;;;;;;26.90;99.90;;;;;;4969393;28;20283;-75
2023/12/10 07:02:48;;;;;;;;;;;26.80;99.90;;;;;;4970228;28;20453;-75
2023/12/10 07:05:15;;;;;;;;;;;26.80;99.90;;;;;;4970645;28;19953;-76
2023/12/10 07:07:42;;;;;;;;;;;26.80;99.90;;;;;;4969260;28;19917;-78
2023/12/10 07:10:08;;;;;;;;;;;26.90;99.90;;;;;;4956973;28;19953;-77
2023/12/10 07:12:35;;;;;;;;;;;27.00;99.90;;;;;;4959393;28;19957;-77
2023/12/10 07:15:02;;;;;;;;;;;27.00;99.90;;;;;;4960511;28;19915;-77
2023/12/10 07:17:28;;;;;;;;;;;27.10;99.90;;;;;;4951319;28;20356;-76
2023/12/10 07:19:55;;;;;;;;;;;27.10;99.90;;;;;;4956717;28;19918;-77
2023/12/10 07:22:21;;;;;;;;;;;27.00;99.90;;;;;;4958009;28;20299;-78
2023/12/10 07:24:48;;;;;;;;;;;26.90;99.90;;;;;;4951120;28;19922;-78
2023/12/10 07:27:15;;;;;;;;;;;26.80;99.90;;;;;;4963479;28;19917;-79
2023/12/10 07:29:41;;;;;;;;;;;26.80;99.90;;;;;;4968662;28;19922;-75
2023/12/10 07:32:08;;;;;;;;;;;26.70;99.90;;;;;;4969213;28;19910;-76
2023/12/10 07:34:35;;;;;;;;;;;26.70;99.90;;;;;;4957171;28;19965;-76
2023/12/10 07:37:02;;;;;;;;;;;26.70;99.90;;;;;;4957285;28;19914;-77
2023/12/10 07:39:29;;;;;;;;;;;26.70;99.90;;;;;;4965955;28;19914;-76
2023/12/10 07:41:55;;;;;;;;;;;26.60;99.90;;;;;;4960165;28;19929;-75
2023/12/10 07:44:23;;;;;;;;;;;26.60;99.90;;;;;;4957796;28;19914;-75
2023/12/10 07:46:50;;;;;;;;;;;26.50;99.90;;;;;;4963570;28;20009;-78
2023/12/10 07:49:17;;;;;;;;;;;26.60;99.90;;;;;;4962793;28;19911;-78
2023/12/10 07:51:43;;;;;;;;;;;26.50;99.90;;;;;;4968435;28;20359;-79
2023/12/10 07:54:10;;;;;;;;;;;26.40;99.90;;;;;;4967401;28;20377;-76
2023/12/10 07:56:37;;;;;;;;;;;26.40;99.90;;;;;;4972459;28;19914;-76
2023/12/10 07:59:03;;;;;;;;;;;26.40;99.90;;;;;;4975708;28;20290;-76
2023/12/10 08:01:30;;;;;;;;;;;26.30;99.90;;;;;;4974903;28;19922;-75
2023/12/10 08:03:56;;;;;;;;;;;26.20;99.90;;;;;;4973114;28;19910;-75
2023/12/10 08:06:23;;;;;;;;;;;26.10;99.90;;;;;;4973084;28;19914;-76
2023/12/10 08:08:50;;;;;;;;;;;26.10;99.90;;;;;;4972862;28;20001;-77
2023/12/10 08:11:17;;;;;;;;;;;26.00;99.90;;;;;;4972426;28;19918;-75
2023/12/10 08:13:44;;;;;;;;;;;25.90;99.90;;;;;;4973014;28;19915;-75
2023/12/10 08:16:11;;;;;;;;;;;25.90;99.90;;;;;;4972826;28;19910;-74
2023/12/10 08:18:38;;;;;;;;;;;25.90;99.90;;;;;;4971365;28;19914;-74
2023/12/10 08:21:04;;;;;;;;;;;25.90;99.90;;;;;;4972402;28;19929;-74
2023/12/10 08:23:31;;;;;;;;;;;25.90;99.90;;;;;;4972406;28;19925;-74
2023/12/10 08:25:58;;;;;;;;;;;26.00;99.90;;;;;;4959785;28;20363;-75
2023/12/10 08:28:25;;;;;;;;;;;25.90;99.90;;;;;;4972301;28;20121;-74
2023/12/10 08:30:52;;;;;;;;;;;25.90;99.90;;;;;;4972254;28;20430;-75
2023/12/10 08:33:19;;;;;;;;;;;25.80;99.90;;;;;;4964278;28;19930;-73
2023/12/10 08:35:45;;;;;;;;;;;25.70;99.90;;;;;;4971292;28;20287;-74
2023/12/10 08:38:12;;;;;;;;;;;25.60;99.90;;;;;;4970868;28;19914;-73
2023/12/10 08:40:38;;;;;;;;;;;25.60;99.90;;;;;;4954638;28;19918;-75
2023/12/10 08:43:05;;;;;;;;;;;25.40;99.90;;;;;;4971666;28;19941;-74
2023/12/10 08:45:32;;;;;;;;;;;25.40;99.90;;;;;;4969789;28;19956;-73
2023/12/10 08:47:58;;;;;;;;;;;25.30;99.90;;;;;;4965899;28;19921;-74
2023/12/10 08:50:25;;;;;;;;;;;25.20;99.90;;;;;;4955126;28;19914;-74
2023/12/10 08:52:51;;;;;;;;;;;25.10;99.90;;;;;;4952863;28;20394;-74
2023/12/10 08:55:18;;;;;;;;;;;25.10;99.90;;;;;;4966298;28;19922;-73
2023/12/10 08:57:45;;;;;;;;;;;25.10;99.90;;;;;;4961960;28;19911;-74
2023/12/10 09:00:12;;;;;;;;;;;25.10;99.90;;;;;;4956279;28;20282;-73
2023/12/10 09:02:38;;;;;;;;;;;25.10;99.90;;;;;;4951685;28;19922;-73
2023/12/10 09:05:05;;;;;;;;;;;25.00;99.90;;;;;;4967994;28;20275;-73
2023/12/10 09:07:32;;;;;;;;;;;24.90;99.90;;;;;;4960396;28;19915;-73
2023/12/10 09:09:59;;;;;;;;;;;24.90;99.90;;;;;;4953431;28;19939;-72
2023/12/10 09:12:27;;;;;;;;;;;24.90;99.90;;;;;;4951126;28;19914;-73
2023/12/10 09:14:54;;;;;;;;;;;24.80;99.90;;;;;;4960474;28;19922;-73
2023/12/10 09:17:21;;;;;;;;;;;24.80;99.90;;;;;;4968425;28;19914;-75
2023/12/10 09:19:48;;;;;;;;;;;24.90;99.90;;;;;;4971021;28;19910;-72
2023/12/10 09:22:15;;;;;;;;;;;24.80;99.90;;;;;;4955837;28;19926;-73
2023/12/10 09:24:41;;;;;;;;;;;24.80;99.90;;;;;;4966467;28;19910;-73
2023/12/10 09:27:08;;;;;;;;;;;24.90;99.90;;;;;;4986082;28;19941;-74
2023/12/10 09:29:38;;;;;;;;;;;24.90;99.90;;;;;;4957980;28;19918;-73
2023/12/10 09:32:08;;;;;;;;;;;24.90;99.90;;;;;;4953672;28;20367;-73
2023/12/10 09:34:35;;;;;;;;;;;24.80;99.90;;;;;;4970465;28;19956;-73
2023/12/10 09:37:02;;;;;;;;;;;24.80;99.90;;;;;;4954667;28;19915;-73
2023/12/10 09:39:29;;;;;;;;;;;24.70;99.90;;;;;;4961968;28;19914;-73
2023/12/10 09:41:56;;;;;;;;;;;24.70;99.90;;;;;;4960325;28;19933;-74
2023/12/10 09:44:23;;;;;;;;;;;24.80;99.90;;;;;;4968896;28;19914;-73
2023/12/10 09:46:50;;;;;;;;;;;24.60;99.90;;;;;;4960860;28;20009;-72
2023/12/10 09:49:18;;;;;;;;;;;24.60;99.90;;;;;;4967884;28;19937;-72
2023/12/10 09:51:44;;;;;;;;;;;24.70;99.90;;;;;;4951777;28;19964;-73
2023/12/10 09:54:13;;;;;;;;;;;24.60;99.90;;;;;;4968659;28;20313;-74
2023/12/10 09:56:40;;;;;;;;;;;24.70;99.90;;;;;;4965181;28;19915;-74
2023/12/10 09:59:08;;;;;;;;;;;24.70;99.90;;;;;;4954218;28;19921;-73
2023/12/10 10:01:34;;;;;;;;;;;24.70;99.90;;;;;;5027578;28;19917;-72
2023/12/10 10:04:03;;;;;;;;;;;24.70;99.90;;;;;;5015533;28;19910;-73
2023/12/10 10:06:30;;;;;;;;;;;24.70;99.90;;;;;;4969534;28;19958;-73
2023/12/10 10:08:56;;;;;;;;;;;24.70;99.90;;;;;;4985935;28;20375;-73
2023/12/10 10:11:23;;;;;;;;;;;24.60;99.90;;;;;;4962102;28;19914;-71
2023/12/10 10:13:53;;;;;;;;;;;24.60;99.90;;;;;;4963061;28;19914;-73
2023/12/10 10:16:20;;;;;;;;;;;24.70;99.90;;;;;;4969187;28;19914;-75
2023/12/10 10:18:49;;;;;;;;;;;24.80;99.90;;;;;;4971179;28;20317;-74
2023/12/10 10:21:16;;;;;;;;;;;24.80;99.90;;;;;;4970284;28;19922;-74
2023/12/10 10:23:43;;;;;;;;;;;24.80;99.90;;;;;;4970765;28;19910;-74
2023/12/10 10:26:11;;;;;;;;;;;24.80;99.90;;;;;;4969691;28;20256;-74
2023/12/10 10:28:38;;;;;;;;;;;24.80;99.90;;;;;;4962575;28;20009;-75
2023/12/10 10:31:05;;;;;;;;;;;24.80;99.90;;;;;;4969837;28;19914;-74
2023/12/10 10:33:32;;;;;;;;;;;24.70;99.90;;;;;;4958279;28;19922;-73
2023/12/10 10:36:00;;;;;;;;;;;24.60;99.90;;;;;;4952081;28;20056;-75
2023/12/10 10:38:28;;;;;;;;;;;24.60;99.90;;;;;;4952107;28;19915;-74
2023/12/10 10:41:01;;;;;;;;;;;24.50;99.90;;;;;;4950917;28;19915;-76
2023/12/10 10:43:28;;;;;;;;;;;24.50;99.90;;;;;;4954352;28;20022;-74
2023/12/10 10:45:55;;;;;;;;;;;24.50;99.90;;;;;;4952896;28;19940;-73
2023/12/10 10:48:26;;;;;;;;;;;24.50;99.90;;;;;;4970861;28;20416;-75
2023/12/10 10:50:53;;;;;;;;;;;24.60;99.90;;;;;;4970373;28;19918;-74
2023/12/10 10:53:20;;;;;;;;;;;24.60;99.90;;;;;;4969961;28;19919;-74
2023/12/10 10:55:48;;;;;;;;;;;24.60;99.90;;;;;;4970550;28;19937;-76
2023/12/10 10:58:25;;;;;;;;;;;24.60;99.90;;;;;;4970545;28;19929;-74
2023/12/10 11:00:51;;;;;;;;;;;24.70;99.90;;;;;;4970441;28;19948;-74
2023/12/10 11:03:18;;;;;;;;;;;24.70;99.90;;;;;;4970043;28;19929;-75
2023/12/10 11:05:45;;;;;;;;;;;24.70;99.90;;;;;;4970700;28;19914;-74
2023/12/10 11:08:12;;;;;;;;;;;24.60;99.90;;;;;;4971154;28;19964;-74
2023/12/10 11:10:45;;;;;;;;;;;24.60;99.90;;;;;;4971118;28;19910;-74
2023/12/10 11:13:13;;;;;;;;;;;24.50;99.90;;;;;;4970712;28;19911;-75
2023/12/10 11:15:39;;;;;;;;;;;24.40;99.90;;;;;;4970949;28;19910;-74
2023/12/10 11:18:06;;;;;;;;;;;24.30;99.90;;;;;;4970558;28;19918;-73
2023/12/10 11:20:43;;;;;;;;;;;24.30;99.90;;;;;;4969799;28;19925;-74
2023/12/10 11:23:16;;;;;;;;;;;24.30;99.90;;;;;;4970463;28;20009;-75
2023/12/10 11:25:44;;;;;;;;;;;24.30;99.90;;;;;;4972584;28;19910;-74
2023/12/10 11:28:12;;;;;;;;;;;24.30;99.90;;;;;;4974690;28;19911;-74
2023/12/10 11:30:39;;;;;;;;;;;24.30;99.90;;;;;;4974706;28;19999;-75
2023/12/10 11:33:06;;;;;;;;;;;24.30;99.90;;;;;;4974957;28;19933;-75
2023/12/10 11:35:33;;;;;;;;;;;24.30;99.90;;;;;;4974972;28;19914;-74
2023/12/10 11:37:59;;;;;;;;;;;24.30;99.90;;;;;;4974130;28;19914;-75
2023/12/10 11:40:26;;;;;;;;;;;24.20;99.90;;;;;;4963693;28;19960;-75
2023/12/10 11:42:53;;;;;;;;;;;24.20;99.90;;;;;;4954798;28;19919;-75
2023/12/10 11:45:19;;;;;;;;;;;24.30;99.90;;;;;;4954882;28;19933;-75
2023/12/10 11:47:46;;;;;;;;;;;24.30;99.90;;;;;;4955916;28;19918;-75
2023/12/10 11:50:14;;;;;;;;;;;24.30;99.90;;;;;;4954493;28;20017;-75
2023/12/10 11:52:42;;;;;;;;;;;24.20;99.90;;;;;;4954952;28;19978;-75
2023/12/10 11:55:09;;;;;;;;;;;24.20;99.90;;;;;;4954720;28;19915;-75
2023/12/10 11:57:45;;;;;;;;;;;24.20;99.90;;;;;;4954718;28;19933;-74
2023/12/10 12:00:12;;;;;;;;;;;24.20;99.90;;;;;;4954419;28;19917;-75
2023/12/10 12:02:43;;;;;;;;;;;24.20;99.90;;;;;;4955123;28;19941;-74
2023/12/10 12:05:19;;;;;;;;;;;24.20;99.90;;;;;;4954398;28;20356;-78
2023/12/10 12:07:48;;;;;;;;;;;24.30;99.90;;;;;;4954727;28;19918;-75
2023/12/10 12:10:17;;;;;;;;;;;24.30;99.90;;;;;;4953033;28;19914;-75
2023/12/10 12:12:45;;;;;;;;;;;24.20;99.90;;;;;;4954271;28;19925;-74
2023/12/10 12:15:12;;;;;;;;;;;24.10;99.90;;;;;;4953988;28;20413;-76
2023/12/10 12:17:40;;;;;;;;;;;24.10;99.90;;;;;;4954054;28;19956;-75
2023/12/10 12:20:17;;;;;;;;;;;24.10;99.90;;;;;;4953626;28;19933;-76
2023/12/10 12:22:45;;;;;;;;;;;24.10;99.90;;;;;;4952459;28;19947;-75
2023/12/10 12:25:11;;;;;;;;;;;24.20;99.90;;;;;;4954142;28;19970;-75
2023/12/10 12:27:38;;;;;;;;;;;24.20;99.90;;;;;;4954066;28;19911;-75
2023/12/10 12:30:05;;;;;;;;;;;24.20;99.90;;;;;;4953730;28;19910;-73
2023/12/10 12:32:32;;;;;;;;;;;24.30;99.90;;;;;;4953820;28;19922;-74
2023/12/10 12:34:59;;;;;;;;;;;24.20;99.90;;;;;;4953688;28;19914;-74
2023/12/10 12:37:26;;;;;;;;;;;24.20;99.90;;;;;;4953664;28;19921;-74
2023/12/10 12:39:54;;;;;;;;;;;24.20;99.90;;;;;;4953419;28;19917;-73
2023/12/10 12:42:24;;;;;;;;;;;24.00;99.90;;;;;;4953466;28;20429;-75
2023/12/10 12:44:50;;;;;;;;;;;24.00;99.90;;;;;;4953218;28;20386;-74
2023/12/10 12:47:17;;;;;;;;;;;24.00;99.90;;;;;;4952054;28;19922;-74
2023/12/10 12:49:44;;;;;;;;;;;24.00;99.90;;;;;;4953460;28;19961;-73
2023/12/10 12:52:10;;;;;;;;;;;23.90;99.90;;;;;;4956043;28;19910;-74
2023/12/10 12:54:37;;;;;;;;;;;23.90;99.90;;;;;;4972484;28;19914;-74
2023/12/10 12:57:04;;;;;;;;;;;23.80;99.90;;;;;;4972173;28;20009;-74
2023/12/10 12:59:30;;;;;;;;;;;23.80;99.90;;;;;;4972274;28;19914;-74
2023/12/10 13:01:57;;;;;;;;;;;23.80;99.90;;;;;;4972456;28;19918;-74
2023/12/10 13:04:24;;;;;;;;;;;23.80;99.90;;;;;;4972421;28;20029;-75
2023/12/10 13:06:51;;;;;;;;;;;23.80;99.90;;;;;;4972185;28;19942;-74
2023/12/10 13:09:19;;;;;;;;;;;23.90;99.90;;;;;;4972498;28;19914;-74
2023/12/10 13:11:46;;;;;;;;;;;23.80;99.90;;;;;;4972701;28;19984;-75
2023/12/10 13:14:13;;;;;;;;;;;23.80;99.90;;;;;;4972681;28;19963;-74
2023/12/10 13:16:39;;;;;;;;;;;23.90;99.90;;;;;;4972317;28;20367;-74
2023/12/10 13:19:06;;;;;;;;;;;23.90;99.90;;;;;;4971799;28;20371;-74
2023/12/10 13:21:33;;;;;;;;;;;23.90;99.90;;;;;;4970622;28;19956;-74
2023/12/10 13:23:59;;;;;;;;;;;23.80;99.90;;;;;;4972186;28;19921;-74
2023/12/10 13:26:28;;;;;;;;;;;23.80;99.90;;;;;;4972120;28;19914;-75
2023/12/10 13:28:54;;;;;;;;;;;23.80;99.90;;;;;;4972155;28;20055;-74
2023/12/10 13:31:21;;;;;;;;;;;23.70;99.90;;;;;;4971457;28;20001;-75
2023/12/10 13:33:47;;;;;;;;;;;23.70;99.90;;;;;;4971927;28;19922;-74
2023/12/10 13:36:14;;;;;;;;;;;23.70;99.90;;;;;;4971460;28;19918;-74
2023/12/10 13:38:41;;;;;;;;;;;23.60;99.90;;;;;;4971638;28;19948;-75
2023/12/10 13:41:07;;;;;;;;;;;23.70;99.90;;;;;;4971960;28;19924;-74
2023/12/10 13:43:35;;;;;;;;;;;23.70;99.90;;;;;;4971732;28;19919;-75
2023/12/10 13:46:02;;;;;;;;;;;23.60;99.90;;;;;;4972153;28;19911;-76
2023/12/10 13:48:29;;;;;;;;;;;23.60;99.90;;;;;;4971198;28;19945;-74
2023/12/10 13:50:55;;;;;;;;;;;23.70;99.90;;;;;;4971606;28;19958;-74
2023/12/10 13:53:22;;;;;;;;;;;23.70;99.90;;;;;;4971379;28;19921;-74
2023/12/10 13:55:48;;;;;;;;;;;23.70;99.90;;;;;;4971925;28;19956;-75
2023/12/10 13:58:15;;;;;;;;;;;23.60;99.90;;;;;;4971868;28;19956;-74
2023/12/10 14:00:42;;;;;;;;;;;23.70;99.90;;;;;;4971565;28;19922;-76
2023/12/10 14:03:09;;;;;;;;;;;23.60;99.90;;;;;;4969590;28;19980;-75
2023/12/10 14:05:35;;;;;;;;;;;23.60;99.90;;;;;;4971408;28;19966;-74
2023/12/10 14:08:02;;;;;;;;;;;23.60;99.90;;;;;;4971699;28;19932;-73
2023/12/10 14:10:29;;;;;;;;;;;23.60;99.90;;;;;;4970980;28;19914;-75
2023/12/10 14:12:55;;;;;;;;;;;23.60;99.90;;;;;;4971477;28;19918;-75
2023/12/10 14:15:22;;;;;;;;;;;23.60;99.90;;;;;;4971537;28;19980;-74